sensor_id;sensor_type;location;lat;lon;timestamp;P1;P2;P0
72854;PMS7003;60991;51.278;22.550;2023-04-29T00:01:13;15.33;14.00;11.00
72854;PMS7003;60991;51.278;22.550;2023-04-29T00:02:43;17.00;13.00;10.33
72854;PMS7003;60991;51.278;22.550;2023-04-29T00:04:14;20.00;13.67;11.00
72854;PMS7003;60991;51.278;22.550;2023-04-29T00:05:44;16.67;14.00;11.33
72854;PMS7003;60991;51.278;22.550;2023-04-29T00:07:14;13.00;11.25;9.00
72854;PMS7003;60991;51.278;22.550;2023-04-29T00:08:44;15.33;13.67;10.33
72854;PMS7003;60991;51.278;22.550;2023-04-29T00:10:15;20.67;12.33;11.00
72854;PMS7003;60991;51.278;22.550;2023-04-29T00:11:45;13.25;13.25;11.00
72854;PMS7003;60991;51.278;22.550;2023-04-29T00:13:15;26.00;17.67;12.00
72854;PMS7003;60991;51.278;22.550;2023-04-29T00:14:46;18.00;16.75;12.25
72854;PMS7003;60991;51.278;22.550;2023-04-29T00:16:16;14.00;14.00;12.00
72854;PMS7003;60991;51.278;22.550;2023-04-29T00:17:46;17.00;14.00;8.67
72854;PMS7003;60991;51.278;22.550;2023-04-29T00:19:16;21.50;14.75;11.75
72854;PMS7003;60991;51.278;22.550;2023-04-29T00:20:47;17.00;14.33;11.00
72854;PMS7003;60991;51.278;22.550;2023-04-29T00:22:17;15.00;10.25;8.50
72854;PMS7003;60991;51.278;22.550;2023-04-29T00:23:47;11.00;11.00;7.00
72854;PMS7003;60991;51.278;22.550;2023-04-29T00:25:17;17.00;13.67;9.67
72854;PMS7003;60991;51.278;22.550;2023-04-29T00:26:47;8.33;8.00;7.00
72854;PMS7003;60991;51.278;22.550;2023-04-29T00:28:18;13.75;12.00;9.00
72854;PMS7003;60991;51.278;22.550;2023-04-29T00:29:48;12.00;9.50;7.25
72854;PMS7003;60991;51.278;22.550;2023-04-29T00:31:18;12.67;12.00;9.00
72854;PMS7003;60991;51.278;22.550;2023-04-29T00:32:48;12.25;12.25;8.00
72854;PMS7003;60991;51.278;22.550;2023-04-29T00:34:19;13.00;13.00;9.00
72854;PMS7003;60991;51.278;22.550;2023-04-29T00:35:49;11.50;11.25;8.75
72854;PMS7003;60991;51.278;22.550;2023-04-29T00:37:19;16.00;12.00;8.75
72854;PMS7003;60991;51.278;22.550;2023-04-29T00:38:50;9.00;7.00;6.00
72854;PMS7003;60991;51.278;22.550;2023-04-29T00:40:20;14.33;12.33;10.33
72854;PMS7003;60991;51.278;22.550;2023-04-29T00:41:50;12.00;10.50;9.00
72854;PMS7003;60991;51.278;22.550;2023-04-29T00:43:21;14.00;12.25;9.50
72854;PMS7003;60991;51.278;22.550;2023-04-29T00:44:51;8.50;6.50;6.25
72854;PMS7003;60991;51.278;22.550;2023-04-29T00:46:21;12.00;12.00;8.50
72854;PMS7003;60991;51.278;22.550;2023-04-29T00:47:51;16.67;14.00;9.00
72854;PMS7003;60991;51.278;22.550;2023-04-29T00:49:22;11.00;9.00;7.00
72854;PMS7003;60991;51.278;22.550;2023-04-29T00:50:52;13.00;12.00;8.33
72854;PMS7003;60991;51.278;22.550;2023-04-29T00:52:22;9.67;9.00;8.00
72854;PMS7003;60991;51.278;22.550;2023-04-29T00:53:53;12.25;8.75;7.75
72854;PMS7003;60991;51.278;22.550;2023-04-29T00:55:23;15.75;12.75;9.00
72854;PMS7003;60991;51.278;22.550;2023-04-29T00:56:54;12.50;9.25;7.25
72854;PMS7003;60991;51.278;22.550;2023-04-29T00:58:25;17.50;14.50;11.50
72854;PMS7003;60991;51.278;22.550;2023-04-29T00:59:58;9.25;7.50;3.25
72854;PMS7003;60991;51.278;22.550;2023-04-29T01:01:29;14.00;12.50;9.00
72854;PMS7003;60991;51.278;22.550;2023-04-29T01:02:59;12.25;11.00;9.75
72854;PMS7003;60991;51.278;22.550;2023-04-29T01:04:30;12.50;12.50;8.25
72854;PMS7003;60991;51.278;22.550;2023-04-29T01:06:18;13.75;12.25;10.00
72854;PMS7003;60991;51.278;22.550;2023-04-29T01:10:08;14.25;13.50;10.00
72854;PMS7003;60991;51.278;22.550;2023-04-29T01:11:46;13.50;8.50;7.25
72854;PMS7003;60991;51.278;22.550;2023-04-29T01:13:45;14.00;12.25;9.00
72854;PMS7003;60991;51.278;22.550;2023-04-29T01:15:24;15.75;8.75;6.50
72854;PMS7003;60991;51.278;22.550;2023-04-29T01:16:59;13.25;11.75;8.75
72854;PMS7003;60991;51.278;22.550;2023-04-29T01:18:36;17.25;17.25;12.75
72854;PMS7003;60991;51.278;22.550;2023-04-29T01:20:13;17.75;16.75;13.00
72854;PMS7003;60991;51.278;22.550;2023-04-29T01:21:44;19.75;15.50;11.75
72854;PMS7003;60991;51.278;22.550;2023-04-29T01:23:15;16.50;14.75;10.50
72854;PMS7003;60991;51.278;22.550;2023-04-29T01:24:45;22.33;18.00;12.00
72854;PMS7003;60991;51.278;22.550;2023-04-29T01:26:16;20.75;20.00;14.00
72854;PMS7003;60991;51.278;22.550;2023-04-29T01:29:34;20.50;17.75;13.00
72854;PMS7003;60991;51.278;22.550;2023-04-29T01:31:17;21.75;15.25;11.75
72854;PMS7003;60991;51.278;22.550;2023-04-29T01:33:12;16.75;15.75;11.50
72854;PMS7003;60991;51.278;22.550;2023-04-29T01:37:06;14.50;14.50;10.25
72854;PMS7003;60991;51.278;22.550;2023-04-29T01:40:31;16.00;16.00;12.00
72854;PMS7003;60991;51.278;22.550;2023-04-29T01:44:22;16.50;12.75;10.50
72854;PMS7003;60991;51.278;22.550;2023-04-29T01:45:53;22.00;16.50;11.50
72854;PMS7003;60991;51.278;22.550;2023-04-29T01:47:25;18.25;15.50;12.00
72854;PMS7003;60991;51.278;22.550;2023-04-29T01:48:56;17.50;13.00;8.00
72854;PMS7003;60991;51.278;22.550;2023-04-29T01:50:26;17.33;13.00;9.67
72854;PMS7003;60991;51.278;22.550;2023-04-29T01:51:56;12.00;12.00;9.00
72854;PMS7003;60991;51.278;22.550;2023-04-29T01:53:27;18.67;12.00;11.00
72854;PMS7003;60991;51.278;22.550;2023-04-29T01:54:57;11.25;11.00;9.25
72854;PMS7003;60991;51.278;22.550;2023-04-29T01:56:27;9.25;8.00;6.50
72854;PMS7003;60991;51.278;22.550;2023-04-29T01:57:57;14.33;13.00;10.00
72854;PMS7003;60991;51.278;22.550;2023-04-29T01:59:28;11.75;8.00;8.00
72854;PMS7003;60991;51.278;22.550;2023-04-29T02:01:00;13.50;12.50;8.00
72854;PMS7003;60991;51.278;22.550;2023-04-29T02:02:30;14.25;12.00;8.00
72854;PMS7003;60991;51.278;22.550;2023-04-29T02:04:00;12.67;11.33;9.33
72854;PMS7003;60991;51.278;22.550;2023-04-29T02:05:31;11.25;11.00;8.75
72854;PMS7003;60991;51.278;22.550;2023-04-29T02:07:01;11.25;10.50;8.00
72854;PMS7003;60991;51.278;22.550;2023-04-29T02:08:31;11.00;9.25;7.00
72854;PMS7003;60991;51.278;22.550;2023-04-29T02:10:01;12.00;8.50;6.25
72854;PMS7003;60991;51.278;22.550;2023-04-29T02:11:32;15.25;10.75;7.25
72854;PMS7003;60991;51.278;22.550;2023-04-29T02:13:02;17.67;13.33;9.67
72854;PMS7003;60991;51.278;22.550;2023-04-29T02:14:32;7.00;7.00;6.00
72854;PMS7003;60991;51.278;22.550;2023-04-29T02:16:09;8.00;8.00;7.00
72854;PMS7003;60991;51.278;22.550;2023-04-29T02:17:40;12.25;12.25;9.00
72854;PMS7003;60991;51.278;22.550;2023-04-29T02:19:10;15.67;11.00;7.33
72854;PMS7003;60991;51.278;22.550;2023-04-29T02:20:41;10.50;9.25;8.00
72854;PMS7003;60991;51.278;22.550;2023-04-29T02:22:11;12.00;11.00;9.00
72854;PMS7003;60991;51.278;22.550;2023-04-29T02:23:41;15.75;13.00;8.75
72854;PMS7003;60991;51.278;22.550;2023-04-29T02:25:12;13.00;12.50;8.75
72854;PMS7003;60991;51.278;22.550;2023-04-29T02:26:42;9.00;9.00;7.00
72854;PMS7003;60991;51.278;22.550;2023-04-29T02:28:12;11.00;11.00;8.00
72854;PMS7003;60991;51.278;22.550;2023-04-29T02:29:42;8.33;7.33;6.00
72854;PMS7003;60991;51.278;22.550;2023-04-29T02:31:12;8.67;8.33;7.67
72854;PMS7003;60991;51.278;22.550;2023-04-29T02:32:43;12.67;12.33;9.00
72854;PMS7003;60991;51.278;22.550;2023-04-29T02:34:13;12.33;8.33;7.67
72854;PMS7003;60991;51.278;22.550;2023-04-29T02:35:43;15.33;10.33;7.00
72854;PMS7003;60991;51.278;22.550;2023-04-29T02:37:13;13.50;12.00;9.25
72854;PMS7003;60991;51.278;22.550;2023-04-29T02:38:44;13.50;11.50;9.00
72854;PMS7003;60991;51.278;22.550;2023-04-29T02:40:14;13.75;11.25;8.00
72854;PMS7003;60991;51.278;22.550;2023-04-29T02:41:44;17.33;12.00;11.00
72854;PMS7003;60991;51.278;22.550;2023-04-29T02:43:15;11.75;11.75;10.00
72854;PMS7003;60991;51.278;22.550;2023-04-29T02:44:45;11.33;11.33;8.00
72854;PMS7003;60991;51.278;22.550;2023-04-29T02:46:15;19.67;13.67;9.00
72854;PMS7003;60991;51.278;22.550;2023-04-29T02:47:45;13.50;11.50;9.00
72854;PMS7003;60991;51.278;22.550;2023-04-29T02:49:16;17.67;15.67;12.00
72854;PMS7003;60991;51.278;22.550;2023-04-29T02:50:46;19.33;16.00;11.33
72854;PMS7003;60991;51.278;22.550;2023-04-29T02:52:16;14.50;13.50;11.50
72854;PMS7003;60991;51.278;22.550;2023-04-29T02:53:46;13.67;13.67;11.67
72854;PMS7003;60991;51.278;22.550;2023-04-29T02:55:16;17.67;17.33;13.00
72854;PMS7003;60991;51.278;22.550;2023-04-29T02:56:47;22.50;16.00;12.00
72854;PMS7003;60991;51.278;22.550;2023-04-29T02:58:17;22.00;21.00;13.67
72854;PMS7003;60991;51.278;22.550;2023-04-29T02:59:47;21.00;20.00;13.00
72854;PMS7003;60991;51.278;22.550;2023-04-29T03:01:17;19.00;17.25;13.00
72854;PMS7003;60991;51.278;22.550;2023-04-29T03:02:47;20.33;18.00;14.00
72854;PMS7003;60991;51.278;22.550;2023-04-29T03:04:18;17.67;16.33;12.33
72854;PMS7003;60991;51.278;22.550;2023-04-29T03:05:48;23.67;21.00;14.00
72854;PMS7003;60991;51.278;22.550;2023-04-29T03:07:18;22.00;18.33;12.00
72854;PMS7003;60991;51.278;22.550;2023-04-29T03:08:48;21.67;20.67;14.33
72854;PMS7003;60991;51.278;22.550;2023-04-29T03:10:18;23.67;18.33;11.33
72854;PMS7003;60991;51.278;22.550;2023-04-29T03:11:49;19.50;17.50;13.00
72854;PMS7003;60991;51.278;22.550;2023-04-29T03:13:19;23.00;20.00;12.00
72854;PMS7003;60991;51.278;22.550;2023-04-29T03:14:49;18.33;16.67;13.00
72854;PMS7003;60991;51.278;22.550;2023-04-29T03:16:19;25.00;17.67;12.33
72854;PMS7003;60991;51.278;22.550;2023-04-29T03:17:50;24.25;17.00;12.00
72854;PMS7003;60991;51.278;22.550;2023-04-29T03:19:20;22.00;17.00;11.75
72854;PMS7003;60991;51.278;22.550;2023-04-29T03:20:51;21.25;17.75;14.75
72854;PMS7003;60991;51.278;22.550;2023-04-29T03:22:21;28.33;21.67;16.00
72854;PMS7003;60991;51.278;22.550;2023-04-29T03:23:51;26.33;18.33;13.67
72854;PMS7003;60991;51.278;22.550;2023-04-29T03:25:21;20.50;17.50;13.75
72854;PMS7003;60991;51.278;22.550;2023-04-29T03:26:51;20.00;17.00;13.00
72854;PMS7003;60991;51.278;22.550;2023-04-29T03:28:22;22.25;20.50;13.00
72854;PMS7003;60991;51.278;22.550;2023-04-29T03:29:52;19.00;18.25;15.00
72854;PMS7003;60991;51.278;22.550;2023-04-29T03:31:22;17.33;17.33;12.67
72854;PMS7003;60991;51.278;22.550;2023-04-29T03:32:52;26.25;21.50;15.25
72854;PMS7003;60991;51.278;22.550;2023-04-29T03:34:23;21.67;16.00;12.00
72854;PMS7003;60991;51.278;22.550;2023-04-29T03:35:53;23.00;20.75;13.75
72854;PMS7003;60991;51.278;22.550;2023-04-29T03:37:23;19.67;18.33;14.67
72854;PMS7003;60991;51.278;22.550;2023-04-29T03:38:54;19.67;17.00;13.67
72854;PMS7003;60991;51.278;22.550;2023-04-29T03:40:24;17.67;16.33;11.67
72854;PMS7003;60991;51.278;22.550;2023-04-29T03:41:54;25.00;18.00;12.00
72854;PMS7003;60991;51.278;22.550;2023-04-29T03:43:24;20.00;18.33;12.00
72854;PMS7003;60991;51.278;22.550;2023-04-29T03:44:54;20.75;16.75;14.00
72854;PMS7003;60991;51.278;22.550;2023-04-29T03:46:25;28.33;22.67;14.67
72854;PMS7003;60991;51.278;22.550;2023-04-29T03:47:56;20.25;17.75;13.00
72854;PMS7003;60991;51.278;22.550;2023-04-29T03:49:26;19.33;17.00;14.00
72854;PMS7003;60991;51.278;22.550;2023-04-29T03:50:56;18.67;18.00;12.67
72854;PMS7003;60991;51.278;22.550;2023-04-29T03:52:26;20.67;17.67;14.00
72854;PMS7003;60991;51.278;22.550;2023-04-29T03:53:57;16.50;14.75;11.75
72854;PMS7003;60991;51.278;22.550;2023-04-29T03:55:27;20.25;17.00;15.50
72854;PMS7003;60991;51.278;22.550;2023-04-29T03:56:57;20.33;20.33;13.33
72854;PMS7003;60991;51.278;22.550;2023-04-29T03:58:27;19.33;17.00;12.00
72854;PMS7003;60991;51.278;22.550;2023-04-29T03:59:58;24.00;19.00;12.00
72854;PMS7003;60991;51.278;22.550;2023-04-29T04:01:28;18.67;16.00;12.33
72854;PMS7003;60991;51.278;22.550;2023-04-29T04:02:58;21.00;16.67;11.67
72854;PMS7003;60991;51.278;22.550;2023-04-29T04:04:28;17.00;16.67;12.00
72854;PMS7003;60991;51.278;22.550;2023-04-29T04:05:58;18.00;16.00;11.67
72854;PMS7003;60991;51.278;22.550;2023-04-29T04:07:29;19.33;15.67;12.00
72854;PMS7003;60991;51.278;22.550;2023-04-29T04:08:59;15.67;14.67;11.00
72854;PMS7003;60991;51.278;22.550;2023-04-29T04:10:29;15.67;15.67;12.00
72854;PMS7003;60991;51.278;22.550;2023-04-29T04:11:59;12.33;11.67;10.67
72854;PMS7003;60991;51.278;22.550;2023-04-29T04:13:29;16.00;13.67;11.00
72854;PMS7003;60991;51.278;22.550;2023-04-29T04:15:00;14.25;13.75;11.00
72854;PMS7003;60991;51.278;22.550;2023-04-29T04:16:30;16.33;14.00;10.67
72854;PMS7003;60991;51.278;22.550;2023-04-29T04:18:00;22.00;15.33;10.00
72854;PMS7003;60991;51.278;22.550;2023-04-29T04:19:30;15.33;13.00;11.33
72854;PMS7003;60991;51.278;22.550;2023-04-29T04:21:04;11.67;10.67;8.00
72854;PMS7003;60991;51.278;22.550;2023-04-29T04:22:35;15.75;12.00;9.75
72854;PMS7003;60991;51.278;22.550;2023-04-29T04:24:05;14.25;13.75;10.50
72854;PMS7003;60991;51.278;22.550;2023-04-29T04:25:36;17.00;12.00;8.67
72854;PMS7003;60991;51.278;22.550;2023-04-29T04:27:06;14.00;12.67;8.00
72854;PMS7003;60991;51.278;22.550;2023-04-29T04:28:36;16.25;13.25;11.00
72854;PMS7003;60991;51.278;22.550;2023-04-29T04:30:07;18.00;16.33;11.33
72854;PMS7003;60991;51.278;22.550;2023-04-29T04:31:37;16.75;15.50;10.50
72854;PMS7003;60991;51.278;22.550;2023-04-29T04:33:07;12.33;12.33;9.33
72854;PMS7003;60991;51.278;22.550;2023-04-29T04:34:38;15.33;12.67;10.00
72854;PMS7003;60991;51.278;22.550;2023-04-29T04:36:08;13.00;13.00;11.00
72854;PMS7003;60991;51.278;22.550;2023-04-29T04:37:38;11.75;9.00;4.25
72854;PMS7003;60991;51.278;22.550;2023-04-29T04:39:08;16.33;15.00;12.33
72854;PMS7003;60991;51.278;22.550;2023-04-29T04:40:42;11.00;8.00;8.00
72854;PMS7003;60991;51.278;22.550;2023-04-29T04:42:12;14.75;13.00;8.00
72854;PMS7003;60991;51.278;22.550;2023-04-29T04:43:43;17.33;14.33;11.33
72854;PMS7003;60991;51.278;22.550;2023-04-29T04:45:13;13.25;12.00;8.50
72854;PMS7003;60991;51.278;22.550;2023-04-29T04:46:43;18.00;16.25;11.00
72854;PMS7003;60991;51.278;22.550;2023-04-29T04:48:13;15.67;13.00;10.00
72854;PMS7003;60991;51.278;22.550;2023-04-29T04:49:44;17.25;14.00;11.00
72854;PMS7003;60991;51.278;22.550;2023-04-29T04:51:14;12.00;12.00;9.33
72854;PMS7003;60991;51.278;22.550;2023-04-29T04:52:44;11.67;11.33;9.00
72854;PMS7003;60991;51.278;22.550;2023-04-29T04:54:14;14.00;12.00;8.00
72854;PMS7003;60991;51.278;22.550;2023-04-29T04:55:44;12.00;11.00;8.67
72854;PMS7003;60991;51.278;22.550;2023-04-29T04:57:15;18.33;14.33;10.67
72854;PMS7003;60991;51.278;22.550;2023-04-29T04:58:45;11.33;11.33;10.33
72854;PMS7003;60991;51.278;22.550;2023-04-29T05:00:15;17.67;16.00;11.33
72854;PMS7003;60991;51.278;22.550;2023-04-29T05:01:45;14.00;13.00;10.00
72854;PMS7003;60991;51.278;22.550;2023-04-29T05:03:16;11.50;10.00;9.00
72854;PMS7003;60991;51.278;22.550;2023-04-29T05:04:46;18.00;14.67;9.67
72854;PMS7003;60991;51.278;22.550;2023-04-29T05:06:16;15.67;12.00;9.00
72854;PMS7003;60991;51.278;22.550;2023-04-29T05:07:46;16.00;13.00;10.67
72854;PMS7003;60991;51.278;22.550;2023-04-29T05:09:16;13.50;12.00;10.50
72854;PMS7003;60991;51.278;22.550;2023-04-29T05:10:47;14.67;12.33;9.67
72854;PMS7003;60991;51.278;22.550;2023-04-29T05:12:17;27.00;20.00;12.75
72854;PMS7003;60991;51.278;22.550;2023-04-29T05:13:47;19.67;16.00;11.00
72854;PMS7003;60991;51.278;22.550;2023-04-29T05:15:18;15.50;15.50;10.50
72854;PMS7003;60991;51.278;22.550;2023-04-29T05:16:48;17.50;13.00;11.00
72854;PMS7003;60991;51.278;22.550;2023-04-29T05:18:18;17.00;15.00;9.75
72854;PMS7003;60991;51.278;22.550;2023-04-29T05:19:48;18.00;14.00;12.00
72854;PMS7003;60991;51.278;22.550;2023-04-29T05:21:19;14.00;12.00;9.75
72854;PMS7003;60991;51.278;22.550;2023-04-29T05:22:49;16.33;13.00;11.00
72854;PMS7003;60991;51.278;22.550;2023-04-29T05:24:19;16.25;11.25;8.75
72854;PMS7003;60991;51.278;22.550;2023-04-29T05:25:50;9.50;9.50;8.00
72854;PMS7003;60991;51.278;22.550;2023-04-29T05:27:20;17.50;12.00;9.00
72854;PMS7003;60991;51.278;22.550;2023-04-29T05:28:51;13.33;13.33;11.33
72854;PMS7003;60991;51.278;22.550;2023-04-29T05:30:21;12.67;11.00;9.00
72854;PMS7003;60991;51.278;22.550;2023-04-29T05:31:51;14.00;13.25;11.00
72854;PMS7003;60991;51.278;22.550;2023-04-29T05:33:22;18.75;18.75;9.25
72854;PMS7003;60991;51.278;22.550;2023-04-29T05:34:52;14.00;13.00;11.00
72854;PMS7003;60991;51.278;22.550;2023-04-29T05:36:22;14.67;11.67;11.00
72854;PMS7003;60991;51.278;22.550;2023-04-29T05:37:52;12.00;12.00;8.00
72854;PMS7003;60991;51.278;22.550;2023-04-29T05:39:22;10.33;9.00;9.00
72854;PMS7003;60991;51.278;22.550;2023-04-29T05:40:54;14.33;12.67;11.33
72854;PMS7003;60991;51.278;22.550;2023-04-29T05:42:24;18.00;13.25;11.00
72854;PMS7003;60991;51.278;22.550;2023-04-29T05:43:55;18.25;16.50;10.75
72854;PMS7003;60991;51.278;22.550;2023-04-29T05:45:25;15.67;12.67;9.67
72854;PMS7003;60991;51.278;22.550;2023-04-29T05:46:55;13.25;10.00;7.50
72854;PMS7003;60991;51.278;22.550;2023-04-29T05:48:25;14.33;13.00;9.00
72854;PMS7003;60991;51.278;22.550;2023-04-29T05:49:56;15.25;12.75;9.75
72854;PMS7003;60991;51.278;22.550;2023-04-29T05:51:26;15.33;13.33;8.67
72854;PMS7003;60991;51.278;22.550;2023-04-29T05:52:56;14.25;13.00;8.25
72854;PMS7003;60991;51.278;22.550;2023-04-29T05:54:26;17.25;13.25;10.00
72854;PMS7003;60991;51.278;22.550;2023-04-29T05:55:56;12.00;12.00;10.33
72854;PMS7003;60991;51.278;22.550;2023-04-29T05:57:27;11.33;11.33;8.33
72854;PMS7003;60991;51.278;22.550;2023-04-29T05:58:57;14.00;12.00;8.75
72854;PMS7003;60991;51.278;22.550;2023-04-29T06:00:27;13.33;13.00;9.00
72854;PMS7003;60991;51.278;22.550;2023-04-29T06:02:00;12.00;12.00;9.25
72854;PMS7003;60991;51.278;22.550;2023-04-29T06:03:30;13.00;13.00;10.50
72854;PMS7003;60991;51.278;22.550;2023-04-29T06:05:01;12.33;11.67;9.67
72854;PMS7003;60991;51.278;22.550;2023-04-29T06:06:31;12.00;9.00;8.00
72854;PMS7003;60991;51.278;22.550;2023-04-29T06:08:01;14.75;13.25;9.00
72854;PMS7003;60991;51.278;22.550;2023-04-29T06:09:31;14.00;14.00;10.00
72854;PMS7003;60991;51.278;22.550;2023-04-29T06:11:02;13.00;10.75;8.25
72854;PMS7003;60991;51.278;22.550;2023-04-29T06:12:32;14.25;11.75;8.50
72854;PMS7003;60991;51.278;22.550;2023-04-29T06:14:02;10.33;10.33;9.00
72854;PMS7003;60991;51.278;22.550;2023-04-29T06:15:32;11.33;10.00;8.33
72854;PMS7003;60991;51.278;22.550;2023-04-29T06:17:02;8.00;8.00;7.25
72854;PMS7003;60991;51.278;22.550;2023-04-29T06:18:33;10.00;9.50;8.00
72854;PMS7003;60991;51.278;22.550;2023-04-29T06:20:03;9.00;9.00;7.00
72854;PMS7003;60991;51.278;22.550;2023-04-29T06:21:34;14.50;11.25;8.25
72854;PMS7003;60991;51.278;22.550;2023-04-29T06:23:04;9.33;8.33;8.00
72854;PMS7003;60991;51.278;22.550;2023-04-29T06:24:34;15.50;13.50;9.25
72854;PMS7003;60991;51.278;22.550;2023-04-29T06:26:04;12.00;10.00;9.00
72854;PMS7003;60991;51.278;22.550;2023-04-29T06:27:34;12.75;11.25;8.75
72854;PMS7003;60991;51.278;22.550;2023-04-29T06:29:05;10.25;10.00;9.00
72854;PMS7003;60991;51.278;22.550;2023-04-29T06:30:35;10.67;10.67;9.00
72854;PMS7003;60991;51.278;22.550;2023-04-29T06:32:05;13.25;10.25;8.00
72854;PMS7003;60991;51.278;22.550;2023-04-29T06:33:35;11.00;11.00;9.00
72854;PMS7003;60991;51.278;22.550;2023-04-29T06:35:05;10.33;10.33;9.00
72854;PMS7003;60991;51.278;22.550;2023-04-29T06:36:36;12.75;9.25;8.00
72854;PMS7003;60991;51.278;22.550;2023-04-29T06:38:06;13.00;10.00;8.00
72854;PMS7003;60991;51.278;22.550;2023-04-29T06:39:36;8.00;8.00;7.33
72854;PMS7003;60991;51.278;22.550;2023-04-29T06:41:06;12.33;10.33;9.00
72854;PMS7003;60991;51.278;22.550;2023-04-29T06:42:37;10.00;9.00;8.00
72854;PMS7003;60991;51.278;22.550;2023-04-29T06:44:07;11.00;7.33;5.00
72854;PMS7003;60991;51.278;22.550;2023-04-29T06:45:37;9.00;8.33;7.00
72854;PMS7003;60991;51.278;22.550;2023-04-29T06:47:07;11.67;9.00;8.00
72854;PMS7003;60991;51.278;22.550;2023-04-29T06:48:37;9.67;9.67;8.00
72854;PMS7003;60991;51.278;22.550;2023-04-29T06:50:08;12.50;8.50;7.50
72854;PMS7003;60991;51.278;22.550;2023-04-29T06:51:38;14.50;11.50;10.00
72854;PMS7003;60991;51.278;22.550;2023-04-29T06:53:09;12.25;11.00;8.25
72854;PMS7003;60991;51.278;22.550;2023-04-29T06:54:39;9.00;7.67;7.00
72854;PMS7003;60991;51.278;22.550;2023-04-29T06:56:09;9.75;9.50;9.00
72854;PMS7003;60991;51.278;22.550;2023-04-29T06:57:39;14.33;9.33;7.33
72854;PMS7003;60991;51.278;22.550;2023-04-29T06:59:09;9.33;8.33;6.33
72854;PMS7003;60991;51.278;22.550;2023-04-29T07:00:42;10.00;9.00;7.67
72854;PMS7003;60991;51.278;22.550;2023-04-29T07:02:13;11.00;9.50;4.50
72854;PMS7003;60991;51.278;22.550;2023-04-29T07:03:44;9.00;9.00;8.00
72854;PMS7003;60991;51.278;22.550;2023-04-29T07:05:14;9.00;8.25;7.25
72854;PMS7003;60991;51.278;22.550;2023-04-29T07:06:44;12.25;9.00;8.00
72854;PMS7003;60991;51.278;22.550;2023-04-29T07:08:14;10.75;8.25;8.00
72854;PMS7003;60991;51.278;22.550;2023-04-29T07:09:44;10.00;10.00;8.00
72854;PMS7003;60991;51.278;22.550;2023-04-29T07:11:15;5.00;5.00;4.25
72854;PMS7003;60991;51.278;22.550;2023-04-29T07:12:45;11.33;9.00;8.00
72854;PMS7003;60991;51.278;22.550;2023-04-29T07:14:15;8.67;8.00;6.67
72854;PMS7003;60991;51.278;22.550;2023-04-29T07:15:45;8.50;8.50;7.50
72854;PMS7003;60991;51.278;22.550;2023-04-29T07:17:15;10.00;10.00;8.00
72854;PMS7003;60991;51.278;22.550;2023-04-29T07:18:46;11.67;11.00;9.00
72854;PMS7003;60991;51.278;22.550;2023-04-29T07:20:17;11.00;11.00;8.50
72854;PMS7003;60991;51.278;22.550;2023-04-29T07:21:47;12.00;9.50;8.00
72854;PMS7003;60991;51.278;22.550;2023-04-29T07:23:17;11.50;9.25;8.50
72854;PMS7003;60991;51.278;22.550;2023-04-29T07:24:47;9.75;8.75;7.50
72854;PMS7003;60991;51.278;22.550;2023-04-29T07:26:17;18.33;11.33;9.00
72854;PMS7003;60991;51.278;22.550;2023-04-29T07:27:48;11.75;11.00;9.00
72854;PMS7003;60991;51.278;22.550;2023-04-29T07:29:18;9.67;6.00;6.00
72854;PMS7003;60991;51.278;22.550;2023-04-29T07:30:48;9.00;9.00;7.75
72854;PMS7003;60991;51.278;22.550;2023-04-29T07:32:18;9.33;7.33;6.00
72854;PMS7003;60991;51.278;22.550;2023-04-29T07:33:48;10.25;10.00;8.00
72854;PMS7003;60991;51.278;22.550;2023-04-29T07:35:19;10.75;9.00;6.00
72854;PMS7003;60991;51.278;22.550;2023-04-29T07:36:49;6.00;2.00;1.50
72854;PMS7003;60991;51.278;22.550;2023-04-29T07:38:19;12.00;10.00;9.00
72854;PMS7003;60991;51.278;22.550;2023-04-29T07:39:49;9.67;8.33;6.00
72854;PMS7003;60991;51.278;22.550;2023-04-29T07:41:20;8.00;8.00;6.00
72854;PMS7003;60991;51.278;22.550;2023-04-29T07:42:50;9.00;7.25;6.75
72854;PMS7003;60991;51.278;22.550;2023-04-29T07:44:21;8.75;8.00;6.00
72854;PMS7003;60991;51.278;22.550;2023-04-29T07:45:51;5.75;5.75;4.00
72854;PMS7003;60991;51.278;22.550;2023-04-29T07:47:21;12.00;8.25;6.25
72854;PMS7003;60991;51.278;22.550;2023-04-29T07:48:51;6.50;6.00;5.75
72854;PMS7003;60991;51.278;22.550;2023-04-29T07:50:21;10.00;8.00;7.00
72854;PMS7003;60991;51.278;22.550;2023-04-29T07:51:52;7.25;7.25;6.00
72854;PMS7003;60991;51.278;22.550;2023-04-29T07:53:22;6.75;6.00;5.00
72854;PMS7003;60991;51.278;22.550;2023-04-29T07:54:52;10.00;6.50;6.00
72854;PMS7003;60991;51.278;22.550;2023-04-29T07:56:22;10.25;6.75;6.00
72854;PMS7003;60991;51.278;22.550;2023-04-29T07:57:52;9.75;7.00;5.75
72854;PMS7003;60991;51.278;22.550;2023-04-29T07:59:23;4.67;4.67;4.00
72854;PMS7003;60991;51.278;22.550;2023-04-29T08:00:53;7.50;7.50;6.75
72854;PMS7003;60991;51.278;22.550;2023-04-29T08:02:23;9.00;6.25;5.50
72854;PMS7003;60991;51.278;22.550;2023-04-29T08:03:53;9.50;9.50;7.25
72854;PMS7003;60991;51.278;22.550;2023-04-29T08:05:24;10.50;6.75;5.50
72854;PMS7003;60991;51.278;22.550;2023-04-29T08:06:55;6.00;5.25;5.25
72854;PMS7003;60991;51.278;22.550;2023-04-29T08:08:25;10.67;10.00;8.33
72854;PMS7003;60991;51.278;22.550;2023-04-29T08:09:55;9.00;6.50;5.00
72854;PMS7003;60991;51.278;22.550;2023-04-29T08:11:26;5.00;4.67;3.00
72854;PMS7003;60991;51.278;22.550;2023-04-29T08:12:56;7.00;7.00;6.00
72854;PMS7003;60991;51.278;22.550;2023-04-29T08:14:26;3.00;3.00;1.75
72854;PMS7003;60991;51.278;22.550;2023-04-29T08:15:56;6.00;6.00;5.00
72854;PMS7003;60991;51.278;22.550;2023-04-29T08:17:27;10.50;8.50;7.00
72854;PMS7003;60991;51.278;22.550;2023-04-29T08:18:57;9.50;9.50;6.75
72854;PMS7003;60991;51.278;22.550;2023-04-29T08:20:27;10.00;10.00;8.33
72854;PMS7003;60991;51.278;22.550;2023-04-29T08:21:57;11.33;10.00;7.00
72854;PMS7003;60991;51.278;22.550;2023-04-29T08:23:27;9.75;9.75;7.00
72854;PMS7003;60991;51.278;22.550;2023-04-29T08:24:58;7.75;6.75;4.75
72854;PMS7003;60991;51.278;22.550;2023-04-29T08:26:28;13.00;11.00;7.50
72854;PMS7003;60991;51.278;22.550;2023-04-29T08:27:58;10.00;10.00;7.00
72854;PMS7003;60991;51.278;22.550;2023-04-29T08:29:32;7.00;7.00;6.00
72854;PMS7003;60991;51.278;22.550;2023-04-29T08:31:02;10.50;7.50;7.25
72854;PMS7003;60991;51.278;22.550;2023-04-29T08:32:32;8.50;8.50;7.00
72854;PMS7003;60991;51.278;22.550;2023-04-29T08:34:02;9.00;9.00;7.00
72854;PMS7003;60991;51.278;22.550;2023-04-29T08:35:33;9.00;7.50;6.50
72854;PMS7003;60991;51.278;22.550;2023-04-29T08:37:04;10.25;7.00;6.00
72854;PMS7003;60991;51.278;22.550;2023-04-29T08:38:34;8.50;7.25;6.00
72854;PMS7003;60991;51.278;22.550;2023-04-29T08:40:04;8.50;7.75;7.00